sensor_id;sensor_type;location;lat;lon;timestamp;P1;durP1;ratioP1;P2;durP2;ratioP2
23702;SDS011;12030;50.376;8.762;2022-07-22T00:00:53;5.47;;;4.13;;
23702;SDS011;12030;50.376;8.762;2022-07-22T00:03:19;6.87;;;4.33;;
23702;SDS011;12030;50.376;8.762;2022-07-22T00:05:44;4.23;;;3.83;;
23702;SDS011;12030;50.376;8.762;2022-07-22T00:08:10;8.37;;;4.47;;
23702;SDS011;12030;50.376;8.762;2022-07-22T00:10:36;5.10;;;4.10;;
23702;SDS011;12030;50.376;8.762;2022-07-22T00:13:01;5.63;;;4.50;;
23702;SDS011;12030;50.376;8.762;2022-07-22T00:15:27;6.80;;;4.50;;
23702;SDS011;12030;50.376;8.762;2022-07-22T00:17:53;5.80;;;4.63;;
23702;SDS011;12030;50.376;8.762;2022-07-22T00:20:19;6.03;;;3.90;;
23702;SDS011;12030;50.376;8.762;2022-07-22T00:22:45;4.70;;;4.10;;
23702;SDS011;12030;50.376;8.762;2022-07-22T00:25:11;5.77;;;4.40;;
23702;SDS011;12030;50.376;8.762;2022-07-22T00:27:36;5.40;;;4.50;;
23702;SDS011;12030;50.376;8.762;2022-07-22T00:30:02;5.37;;;4.53;;
23702;SDS011;12030;50.376;8.762;2022-07-22T00:32:29;5.97;;;4.20;;
23702;SDS011;12030;50.376;8.762;2022-07-22T00:34:54;6.70;;;4.30;;
23702;SDS011;12030;50.376;8.762;2022-07-22T00:37:20;5.53;;;3.87;;
23702;SDS011;12030;50.376;8.762;2022-07-22T00:39:45;4.77;;;4.27;;
23702;SDS011;12030;50.376;8.762;2022-07-22T00:42:13;10.67;;;4.50;;
23702;SDS011;12030;50.376;8.762;2022-07-22T00:44:39;4.33;;;3.93;;
23702;SDS011;12030;50.376;8.762;2022-07-22T00:47:04;6.73;;;4.50;;
23702;SDS011;12030;50.376;8.762;2022-07-22T00:49:30;7.90;;;4.47;;
23702;SDS011;12030;50.376;8.762;2022-07-22T00:51:56;6.50;;;5.20;;
23702;SDS011;12030;50.376;8.762;2022-07-22T00:54:21;5.33;;;4.83;;
23702;SDS011;12030;50.376;8.762;2022-07-22T00:56:47;5.50;;;4.60;;
23702;SDS011;12030;50.376;8.762;2022-07-22T00:59:13;5.63;;;4.50;;
23702;SDS011;12030;50.376;8.762;2022-07-22T01:01:39;6.40;;;4.80;;
23702;SDS011;12030;50.376;8.762;2022-07-22T01:04:05;8.10;;;4.53;;
23702;SDS011;12030;50.376;8.762;2022-07-22T01:06:31;4.83;;;4.37;;
23702;SDS011;12030;50.376;8.762;2022-07-22T01:08:57;7.50;;;4.00;;
23702;SDS011;12030;50.376;8.762;2022-07-22T01:11:23;5.47;;;4.00;;
23702;SDS011;12030;50.376;8.762;2022-07-22T01:13:49;5.53;;;4.43;;
23702;SDS011;12030;50.376;8.762;2022-07-22T01:16:15;5.67;;;4.30;;
23702;SDS011;12030;50.376;8.762;2022-07-22T01:18:42;6.53;;;4.33;;
23702;SDS011;12030;50.376;8.762;2022-07-22T01:21:08;5.77;;;3.63;;
23702;SDS011;12030;50.376;8.762;2022-07-22T01:23:35;6.33;;;3.77;;
23702;SDS011;12030;50.376;8.762;2022-07-22T01:26:01;5.60;;;4.23;;
23702;SDS011;12030;50.376;8.762;2022-07-22T01:28:27;4.37;;;3.90;;
23702;SDS011;12030;50.376;8.762;2022-07-22T01:30:53;6.03;;;4.00;;
23702;SDS011;12030;50.376;8.762;2022-07-22T01:33:19;5.27;;;4.40;;
23702;SDS011;12030;50.376;8.762;2022-07-22T01:35:46;4.53;;;3.70;;
23702;SDS011;12030;50.376;8.762;2022-07-22T01:38:13;5.83;;;3.77;;
23702;SDS011;12030;50.376;8.762;2022-07-22T01:40:39;4.60;;;3.90;;
23702;SDS011;12030;50.376;8.762;2022-07-22T01:43:06;5.73;;;4.10;;
23702;SDS011;12030;50.376;8.762;2022-07-22T01:45:32;4.23;;;3.83;;
23702;SDS011;12030;50.376;8.762;2022-07-22T01:47:57;5.30;;;3.90;;
23702;SDS011;12030;50.376;8.762;2022-07-22T01:50:23;5.43;;;3.63;;
23702;SDS011;12030;50.376;8.762;2022-07-22T01:52:49;5.50;;;3.57;;
23702;SDS011;12030;50.376;8.762;2022-07-22T01:55:15;5.13;;;3.57;;
23702;SDS011;12030;50.376;8.762;2022-07-22T01:57:41;4.73;;;3.97;;
23702;SDS011;12030;50.376;8.762;2022-07-22T02:00:07;3.90;;;3.50;;
23702;SDS011;12030;50.376;8.762;2022-07-22T02:02:34;6.70;;;3.47;;
23702;SDS011;12030;50.376;8.762;2022-07-22T02:05:02;4.10;;;3.70;;
23702;SDS011;12030;50.376;8.762;2022-07-22T02:07:29;6.67;;;4.03;;
23702;SDS011;12030;50.376;8.762;2022-07-22T02:09:54;4.30;;;3.37;;
23702;SDS011;12030;50.376;8.762;2022-07-22T02:12:20;4.87;;;4.17;;
23702;SDS011;12030;50.376;8.762;2022-07-22T02:14:46;6.37;;;4.50;;
23702;SDS011;12030;50.376;8.762;2022-07-22T02:17:12;6.17;;;4.50;;
23702;SDS011;12030;50.376;8.762;2022-07-22T02:19:38;5.23;;;4.73;;
23702;SDS011;12030;50.376;8.762;2022-07-22T02:22:04;5.10;;;4.20;;
23702;SDS011;12030;50.376;8.762;2022-07-22T02:24:30;5.20;;;4.30;;
23702;SDS011;12030;50.376;8.762;2022-07-22T02:26:55;4.90;;;4.03;;
23702;SDS011;12030;50.376;8.762;2022-07-22T02:29:21;5.20;;;4.17;;
23702;SDS011;12030;50.376;8.762;2022-07-22T02:31:47;6.30;;;4.30;;
23702;SDS011;12030;50.376;8.762;2022-07-22T02:34:12;6.93;;;4.53;;
23702;SDS011;12030;50.376;8.762;2022-07-22T02:36:38;4.50;;;4.10;;
23702;SDS011;12030;50.376;8.762;2022-07-22T02:39:04;4.80;;;4.30;;
23702;SDS011;12030;50.376;8.762;2022-07-22T02:41:30;6.47;;;4.90;;
23702;SDS011;12030;50.376;8.762;2022-07-22T02:43:55;5.33;;;4.17;;
23702;SDS011;12030;50.376;8.762;2022-07-22T02:46:22;4.67;;;4.00;;
23702;SDS011;12030;50.376;8.762;2022-07-22T02:48:48;6.20;;;4.50;;
23702;SDS011;12030;50.376;8.762;2022-07-22T02:51:14;5.47;;;4.37;;
23702;SDS011;12030;50.376;8.762;2022-07-22T02:53:39;7.00;;;4.80;;
23702;SDS011;12030;50.376;8.762;2022-07-22T02:56:05;6.03;;;4.40;;
23702;SDS011;12030;50.376;8.762;2022-07-22T02:58:31;6.90;;;4.80;;
23702;SDS011;12030;50.376;8.762;2022-07-22T03:00:57;5.43;;;4.63;;
23702;SDS011;12030;50.376;8.762;2022-07-22T03:03:22;7.23;;;4.80;;
23702;SDS011;12030;50.376;8.762;2022-07-22T03:05:48;6.40;;;4.47;;
23702;SDS011;12030;50.376;8.762;2022-07-22T03:08:14;7.70;;;4.60;;
23702;SDS011;12030;50.376;8.762;2022-07-22T03:10:40;5.20;;;4.70;;
23702;SDS011;12030;50.376;8.762;2022-07-22T03:13:06;5.53;;;4.10;;
23702;SDS011;12030;50.376;8.762;2022-07-22T03:15:32;5.70;;;4.30;;
23702;SDS011;12030;50.376;8.762;2022-07-22T03:17:57;5.50;;;4.63;;
23702;SDS011;12030;50.376;8.762;2022-07-22T03:20:23;7.27;;;4.83;;
23702;SDS011;12030;50.376;8.762;2022-07-22T03:22:48;5.27;;;4.30;;
23702;SDS011;12030;50.376;8.762;2022-07-22T03:25:14;4.73;;;4.30;;
23702;SDS011;12030;50.376;8.762;2022-07-22T03:27:39;6.13;;;3.93;;
23702;SDS011;12030;50.376;8.762;2022-07-22T03:30:05;8.40;;;4.77;;
23702;SDS011;12030;50.376;8.762;2022-07-22T03:32:31;5.17;;;4.30;;
23702;SDS011;12030;50.376;8.762;2022-07-22T03:34:56;5.30;;;4.33;;
23702;SDS011;12030;50.376;8.762;2022-07-22T03:37:22;5.97;;;4.50;;
23702;SDS011;12030;50.376;8.762;2022-07-22T03:39:48;5.63;;;4.63;;
23702;SDS011;12030;50.376;8.762;2022-07-22T03:42:13;5.20;;;4.30;;
23702;SDS011;12030;50.376;8.762;2022-07-22T03:44:39;5.17;;;4.40;;
23702;SDS011;12030;50.376;8.762;2022-07-22T03:47:04;6.23;;;5.50;;
23702;SDS011;12030;50.376;8.762;2022-07-22T03:49:30;5.47;;;4.67;;
23702;SDS011;12030;50.376;8.762;2022-07-22T03:51:56;7.67;;;5.13;;
23702;SDS011;12030;50.376;8.762;2022-07-22T03:54:22;6.23;;;5.57;;
23702;SDS011;12030;50.376;8.762;2022-07-22T03:56:48;8.03;;;6.23;;
23702;SDS011;12030;50.376;8.762;2022-07-22T03:59:14;5.30;;;4.60;;
23702;SDS011;12030;50.376;8.762;2022-07-22T04:01:40;20.03;;;4.80;;
23702;SDS011;12030;50.376;8.762;2022-07-22T04:04:06;5.53;;;4.80;;
23702;SDS011;12030;50.376;8.762;2022-07-22T04:06:31;6.20;;;4.87;;
23702;SDS011;12030;50.376;8.762;2022-07-22T04:08:57;5.30;;;4.53;;
23702;SDS011;12030;50.376;8.762;2022-07-22T04:11:22;6.60;;;4.90;;
23702;SDS011;12030;50.376;8.762;2022-07-22T04:13:48;7.53;;;4.50;;
23702;SDS011;12030;50.376;8.762;2022-07-22T04:16:13;9.00;;;4.93;;
23702;SDS011;12030;50.376;8.762;2022-07-22T04:18:39;7.50;;;4.87;;
23702;SDS011;12030;50.376;8.762;2022-07-22T04:21:04;7.03;;;5.30;;
23702;SDS011;12030;50.376;8.762;2022-07-22T04:23:30;5.33;;;4.83;;
23702;SDS011;12030;50.376;8.762;2022-07-22T04:25:55;5.50;;;4.83;;
23702;SDS011;12030;50.376;8.762;2022-07-22T04:28:21;9.27;;;4.33;;
23702;SDS011;12030;50.376;8.762;2022-07-22T04:30:48;7.07;;;5.20;;
23702;SDS011;12030;50.376;8.762;2022-07-22T04:33:13;6.07;;;4.87;;
23702;SDS011;12030;50.376;8.762;2022-07-22T04:35:39;5.90;;;5.03;;
23702;SDS011;12030;50.376;8.762;2022-07-22T04:38:04;8.83;;;5.70;;
23702;SDS011;12030;50.376;8.762;2022-07-22T04:40:30;9.50;;;5.07;;
23702;SDS011;12030;50.376;8.762;2022-07-22T04:42:55;5.53;;;5.00;;
23702;SDS011;12030;50.376;8.762;2022-07-22T04:45:21;5.23;;;4.37;;
23702;SDS011;12030;50.376;8.762;2022-07-22T04:47:46;5.83;;;4.67;;
23702;SDS011;12030;50.376;8.762;2022-07-22T04:50:12;5.47;;;4.50;;
23702;SDS011;12030;50.376;8.762;2022-07-22T04:52:37;5.87;;;5.20;;
23702;SDS011;12030;50.376;8.762;2022-07-22T04:55:03;8.97;;;5.23;;
23702;SDS011;12030;50.376;8.762;2022-07-22T04:57:29;7.17;;;5.80;;
23702;SDS011;12030;50.376;8.762;2022-07-22T04:59:54;7.73;;;6.43;;
23702;SDS011;12030;50.376;8.762;2022-07-22T05:02:20;9.13;;;6.90;;
23702;SDS011;12030;50.376;8.762;2022-07-22T05:04:46;12.40;;;6.50;;
23702;SDS011;12030;50.376;8.762;2022-07-22T05:07:11;7.23;;;6.53;;
23702;SDS011;12030;50.376;8.762;2022-07-22T05:09:37;10.33;;;6.27;;
23702;SDS011;12030;50.376;8.762;2022-07-22T05:12:03;9.83;;;6.60;;
23702;SDS011;12030;50.376;8.762;2022-07-22T05:14:29;8.00;;;6.20;;
23702;SDS011;12030;50.376;8.762;2022-07-22T05:16:54;7.83;;;5.47;;
23702;SDS011;12030;50.376;8.762;2022-07-22T05:19:20;7.63;;;5.80;;
23702;SDS011;12030;50.376;8.762;2022-07-22T05:21:45;6.40;;;5.30;;
23702;SDS011;12030;50.376;8.762;2022-07-22T05:24:11;6.37;;;5.27;;
23702;SDS011;12030;50.376;8.762;2022-07-22T05:26:37;7.23;;;5.20;;
23702;SDS011;12030;50.376;8.762;2022-07-22T05:29:03;5.70;;;4.90;;
23702;SDS011;12030;50.376;8.762;2022-07-22T05:31:28;5.47;;;4.87;;
23702;SDS011;12030;50.376;8.762;2022-07-22T05:33:54;5.67;;;4.53;;
23702;SDS011;12030;50.376;8.762;2022-07-22T05:36:20;6.07;;;4.53;;
23702;SDS011;12030;50.376;8.762;2022-07-22T05:38:45;6.67;;;4.83;;
23702;SDS011;12030;50.376;8.762;2022-07-22T05:41:11;8.17;;;4.87;;
23702;SDS011;12030;50.376;8.762;2022-07-22T05:43:37;4.90;;;3.97;;
23702;SDS011;12030;50.376;8.762;2022-07-22T05:46:02;4.67;;;4.20;;
23702;SDS011;12030;50.376;8.762;2022-07-22T05:48:28;5.30;;;3.90;;
23702;SDS011;12030;50.376;8.762;2022-07-22T05:50:53;8.73;;;3.90;;
23702;SDS011;12030;50.376;8.762;2022-07-22T05:53:19;4.53;;;3.40;;
23702;SDS011;12030;50.376;8.762;2022-07-22T05:55:44;5.63;;;4.40;;
23702;SDS011;12030;50.376;8.762;2022-07-22T05:58:10;3.43;;;3.13;;
23702;SDS011;12030;50.376;8.762;2022-07-22T06:00:35;3.63;;;3.20;;
23702;SDS011;12030;50.376;8.762;2022-07-22T06:03:01;4.20;;;2.93;;
23702;SDS011;12030;50.376;8.762;2022-07-22T06:05:26;4.80;;;3.10;;
23702;SDS011;12030;50.376;8.762;2022-07-22T06:07:52;3.80;;;3.00;;
23702;SDS011;12030;50.376;8.762;2022-07-22T06:10:17;4.33;;;3.00;;
23702;SDS011;12030;50.376;8.762;2022-07-22T06:12:43;3.10;;;2.50;;
23702;SDS011;12030;50.376;8.762;2022-07-22T06:15:09;4.77;;;2.50;;
23702;SDS011;12030;50.376;8.762;2022-07-22T06:17:34;3.10;;;2.47;;
23702;SDS011;12030;50.376;8.762;2022-07-22T06:20:00;2.83;;;2.40;;
23702;SDS011;12030;50.376;8.762;2022-07-22T06:22:25;3.00;;;2.63;;
23702;SDS011;12030;50.376;8.762;2022-07-22T06:24:51;2.40;;;2.20;;
23702;SDS011;12030;50.376;8.762;2022-07-22T06:27:17;2.40;;;1.87;;
23702;SDS011;12030;50.376;8.762;2022-07-22T06:29:42;3.33;;;1.97;;
23702;SDS011;12030;50.376;8.762;2022-07-22T06:32:08;2.77;;;1.77;;
23702;SDS011;12030;50.376;8.762;2022-07-22T06:34:33;3.57;;;1.70;;
23702;SDS011;12030;50.376;8.762;2022-07-22T06:36:59;2.10;;;1.90;;
23702;SDS011;12030;50.376;8.762;2022-07-22T06:39:24;1.80;;;1.70;;
23702;SDS011;12030;50.376;8.762;2022-07-22T06:41:50;2.10;;;1.60;;
23702;SDS011;12030;50.376;8.762;2022-07-22T06:44:16;2.20;;;1.73;;
23702;SDS011;12030;50.376;8.762;2022-07-22T06:46:41;2.73;;;1.90;;
23702;SDS011;12030;50.376;8.762;2022-07-22T06:49:07;2.73;;;1.90;;
23702;SDS011;12030;50.376;8.762;2022-07-22T06:51:33;2.67;;;1.77;;
23702;SDS011;12030;50.376;8.762;2022-07-22T06:53:59;2.33;;;2.00;;
23702;SDS011;12030;50.376;8.762;2022-07-22T06:56:25;2.00;;;1.80;;
23702;SDS011;12030;50.376;8.762;2022-07-22T06:58:51;2.17;;;1.97;;
23702;SDS011;12030;50.376;8.762;2022-07-22T07:01:16;1.87;;;1.77;;
23702;SDS011;12030;50.376;8.762;2022-07-22T07:03:42;3.53;;;2.23;;
23702;SDS011;12030;50.376;8.762;2022-07-22T07:06:08;2.70;;;2.00;;
23702;SDS011;12030;50.376;8.762;2022-07-22T07:08:36;3.00;;;2.00;;
23702;SDS011;12030;50.376;8.762;2022-07-22T07:11:02;1.60;;;1.50;;
23702;SDS011;12030;50.376;8.762;2022-07-22T07:13:28;3.37;;;2.80;;
23702;SDS011;12030;50.376;8.762;2022-07-22T07:15:54;3.07;;;2.00;;
23702;SDS011;12030;50.376;8.762;2022-07-22T07:18:20;3.07;;;1.87;;
23702;SDS011;12030;50.376;8.762;2022-07-22T07:20:45;2.60;;;1.90;;
23702;SDS011;12030;50.376;8.762;2022-07-22T07:23:11;2.23;;;2.03;;
23702;SDS011;12030;50.376;8.762;2022-07-22T07:25:37;2.07;;;1.87;;
23702;SDS011;12030;50.376;8.762;2022-07-22T07:28:03;1.90;;;1.70;;
23702;SDS011;12030;50.376;8.762;2022-07-22T07:30:28;2.10;;;1.90;;
23702;SDS011;12030;50.376;8.762;2022-07-22T07:32:54;4.33;;;2.17;;
23702;SDS011;12030;50.376;8.762;2022-07-22T07:35:20;2.13;;;1.93;;
23702;SDS011;12030;50.376;8.762;2022-07-22T07:37:45;2.90;;;2.13;;
23702;SDS011;12030;50.376;8.762;2022-07-22T07:40:11;5.23;;;2.23;;
23702;SDS011;12030;50.376;8.762;2022-07-22T07:42:37;4.20;;;2.07;;
23702;SDS011;12030;50.376;8.762;2022-07-22T07:45:03;3.00;;;2.07;;
23702;SDS011;12030;50.376;8.762;2022-07-22T07:47:29;1.70;;;1.60;;
23702;SDS011;12030;50.376;8.762;2022-07-22T07:49:55;2.07;;;1.87;;
23702;SDS011;12030;50.376;8.762;2022-07-22T07:52:22;2.73;;;2.03;;
23702;SDS011;12030;50.376;8.762;2022-07-22T07:54:48;2.97;;;1.83;;
23702;SDS011;12030;50.376;8.762;2022-07-22T07:57:13;2.43;;;2.00;;
23702;SDS011;12030;50.376;8.762;2022-07-22T07:59:40;2.43;;;2.03;;
23702;SDS011;12030;50.376;8.762;2022-07-22T08:02:06;2.73;;;2.07;;
23702;SDS011;12030;50.376;8.762;2022-07-22T08:04:32;1.70;;;1.60;;
23702;SDS011;12030;50.376;8.762;2022-07-22T08:06:58;3.73;;;2.23;;
23702;SDS011;12030;50.376;8.762;2022-07-22T08:09:23;1.93;;;1.77;;
23702;SDS011;12030;50.376;8.762;2022-07-22T08:11:49;2.23;;;1.77;;
23702;SDS011;12030;50.376;8.762;2022-07-22T08:14:15;2.23;;;1.70;;
23702;SDS011;12030;50.376;8.762;2022-07-22T08:16:40;1.63;;;1.53;;
23702;SDS011;12030;50.376;8.762;2022-07-22T08:19:06;3.47;;;2.30;;
23702;SDS011;12030;50.376;8.762;2022-07-22T08:21:31;3.03;;;2.10;;
23702;SDS011;12030;50.376;8.762;2022-07-22T08:23:57;2.97;;;1.80;;
23702;SDS011;12030;50.376;8.762;2022-07-22T08:26:23;2.50;;;2.17;;
23702;SDS011;12030;50.376;8.762;2022-07-22T08:28:48;3.13;;;1.90;;
23702;SDS011;12030;50.376;8.762;2022-07-22T08:31:14;2.67;;;2.00;;
23702;SDS011;12030;50.376;8.762;2022-07-22T08:33:40;2.20;;;2.00;;
23702;SDS011;12030;50.376;8.762;2022-07-22T08:36:05;2.43;;;2.00;;
23702;SDS011;12030;50.376;8.762;2022-07-22T08:38:31;2.70;;;2.30;;
23702;SDS011;12030;50.376;8.762;2022-07-22T08:40:57;2.97;;;2.23;;
23702;SDS011;12030;50.376;8.762;2022-07-22T08:43:23;2.83;;;2.10;;
23702;SDS011;12030;50.376;8.762;2022-07-22T08:45:49;2.17;;;1.97;;
23702;SDS011;12030;50.376;8.762;2022-07-22T08:48:15;3.60;;;2.33;;
23702;SDS011;12030;50.376;8.762;2022-07-22T08:50:41;3.10;;;1.93;;
23702;SDS011;12030;50.376;8.762;2022-07-22T08:53:11;2.37;;;2.13;;
23702;SDS011;12030;50.376;8.762;2022-07-22T08:55:41;5.40;;;1.83;;
23702;SDS011;12030;50.376;8.762;2022-07-22T08:58:08;2.55;;;2.35;;
23702;SDS011;12030;50.376;8.762;2022-07-22T09:00:33;3.57;;;2.03;;
23702;SDS011;12030;50.376;8.762;2022-07-22T09:02:59;2.30;;;2.10;;
23702;SDS011;12030;50.376;8.762;2022-07-22T09:05:25;2.03;;;1.83;;
23702;SDS011;12030;50.376;8.762;2022-07-22T09:07:58;3.37;;;1.80;;
23702;SDS011;12030;50.376;8.762;2022-07-22T09:10:29;4.20;;;2.17;;
23702;SDS011;12030;50.376;8.762;2022-07-22T09:13:00;2.97;;;2.00;;
23702;SDS011;12030;50.376;8.762;2022-07-22T09:15:28;2.80;;;2.20;;
23702;SDS011;12030;50.376;8.762;2022-07-22T09:17:55;2.57;;;2.10;;
23702;SDS011;12030;50.376;8.762;2022-07-22T09:20:21;2.55;;;2.08;;
23702;SDS011;12030;50.376;8.762;2022-07-22T09:22:47;2.50;;;2.30;;
23702;SDS011;12030;50.376;8.762;2022-07-22T09:25:20;2.43;;;2.07;;
23702;SDS011;12030;50.376;8.762;2022-07-22T09:27:55;2.70;;;2.20;;
23702;SDS011;12030;50.376;8.762;2022-07-22T09:30:35;3.47;;;2.23;;
23702;SDS011;12030;50.376;8.762;2022-07-22T09:33:06;3.40;;;1.80;;
23702;SDS011;12030;50.376;8.762;2022-07-22T09:35:32;2.17;;;2.00;;
23702;SDS011;12030;50.376;8.762;2022-07-22T09:37:59;2.53;;;2.33;;
23702;SDS011;12030;50.376;8.762;2022-07-22T09:40:27;2.40;;;2.05;;
23702;SDS011;12030;50.376;8.762;2022-07-22T09:42:56;2.35;;;2.15;;
23702;SDS011;12030;50.376;8.762;2022-07-22T09:45:24;2.97;;;2.10;;
23702;SDS011;12030;50.376;8.762;2022-07-22T09:47:55;2.33;;;2.10;;
23702;SDS011;12030;50.376;8.762;2022-07-22T09:50:24;2.60;;;2.10;;
23702;SDS011;12030;50.376;8.762;2022-07-22T09:52:52;2.93;;;2.00;;
23702;SDS011;12030;50.376;8.762;2022-07-22T09:55:19;2.20;;;2.00;;
23702;SDS011;12030;50.376;8.762;2022-07-22T09:57:47;2.00;;;1.57;;
23702;SDS011;12030;50.376;8.762;2022-07-22T10:00:15;2.75;;;2.30;;
23702;SDS011;12030;50.376;8.762;2022-07-22T10:02:47;3.60;;;1.98;;
23702;SDS011;12030;50.376;8.762;2022-07-22T10:05:15;2.38;;;2.10;;
23702;SDS011;12030;50.376;8.762;2022-07-22T10:07:44;2.38;;;2.10;;
23702;SDS011;12030;50.376;8.762;2022-07-22T10:10:12;2.30;;;2.10;;
23702;SDS011;12030;50.376;8.762;2022-07-22T10:12:40;3.88;;;2.15;;
23702;SDS011;12030;50.376;8.762;2022-07-22T10:15:06;4.22;;;2.33;;
23702;SDS011;12030;50.376;8.762;2022-07-22T10:17:34;2.25;;;2.05;;
23702;SDS011;12030;50.376;8.762;2022-07-22T10:20:02;2.00;;;1.90;;
23702;SDS011;12030;50.376;8.762;2022-07-22T10:25:04;2.72;;;2.15;;
23702;SDS011;12030;50.376;8.762;2022-07-22T10:27:43;2.35;;;2.10;;
23702;SDS011;12030;50.376;8.762;2022-07-22T10:30:14;2.50;;;2.07;;
23702;SDS011;12030;50.376;8.762;2022-07-22T10:32:42;2.80;;;2.10;;
23702;SDS011;12030;50.376;8.762;2022-07-22T10:37:37;2.80;;;2.40;;
23702;SDS011;12030;50.376;8.762;2022-07-22T10:40:09;3.80;;;2.38;;
23702;SDS011;12030;50.376;8.762;2022-07-22T10:45:46;2.50;;;2.30;;
23702;SDS011;12030;50.376;8.762;2022-07-22T10:48:21;4.10;;;3.00;;
23702;SDS011;12030;50.376;8.762;2022-07-22T10:51:09;3.10;;;2.80;;
23702;SDS011;12030;50.376;8.762;2022-07-22T10:53:42;4.38;;;2.80;;
23702;SDS011;12030;50.376;8.762;2022-07-22T10:58:55;4.85;;;3.20;;
23702;SDS011;12030;50.376;8.762;2022-07-22T11:01:31;3.20;;;2.50;;
23702;SDS011;12030;50.376;8.762;2022-07-22T11:04:07;4.75;;;3.00;;
23702;SDS011;12030;50.376;8.762;2022-07-22T11:06:55;3.20;;;2.60;;
23702;SDS011;12030;50.376;8.762;2022-07-22T11:09:23;3.17;;;2.53;;
23702;SDS011;12030;50.376;8.762;2022-07-22T11:11:55;3.30;;;2.92;;
23702;SDS011;12030;50.376;8.762;2022-07-22T11:16:58;4.18;;;3.13;;
23702;SDS011;12030;50.376;8.762;2022-07-22T11:19:29;3.47;;;2.73;;
23702;SDS011;12030;50.376;8.762;2022-07-22T11:22:04;4.00;;;2.88;;
23702;SDS011;12030;50.376;8.762;2022-07-22T11:24:30;3.60;;;2.50;;
23702;SDS011;12030;50.376;8.762;2022-07-22T11:26:57;12.95;;;3.08;;
23702;SDS011;12030;50.376;8.762;2022-07-22T11:29:28;3.10;;;2.53;;
23702;SDS011;12030;50.376;8.762;2022-07-22T11:32:02;4.70;;;2.92;;
23702;SDS011;12030;50.376;8.762;2022-07-22T11:34:32;2.80;;;2.60;;
23702;SDS011;12030;50.376;8.762;2022-07-22T11:37:00;3.47;;;2.70;;
23702;SDS011;12030;50.376;8.762;2022-07-22T11:39:27;3.10;;;2.77;;
23702;SDS011;12030;50.376;8.762;2022-07-22T11:41:55;2.88;;;2.42;;
23702;SDS011;12030;50.376;8.762;2022-07-22T11:44:24;4.50;;;3.17;;
23702;SDS011;12030;50.376;8.762;2022-07-22T11:46:51;3.00;;;2.65;;
23702;SDS011;12030;50.376;8.762;2022-07-22T11:49:18;2.92;;;2.72;;
23702;SDS011;12030;50.376;8.762;2022-07-22T11:51:45;3.15;;;2.50;;
23702;SDS011;12030;50.376;8.762;2022-07-22T11:54:11;3.80;;;2.90;;
23702;SDS011;12030;50.376;8.762;2022-07-22T11:56:36;4.28;;;2.92;;
23702;SDS011;12030;50.376;8.762;2022-07-22T11:59:03;3.13;;;2.78;;
23702;SDS011;12030;50.376;8.762;2022-07-22T12:01:30;4.80;;;2.92;;
23702;SDS011;12030;50.376;8.762;2022-07-22T12:06:31;5.95;;;2.97;;
23702;SDS011;12030;50.376;8.762;2022-07-22T12:09:06;2.92;;;2.63;;
23702;SDS011;12030;50.376;8.762;2022-07-22T12:11:36;2.72;;;2.47;;
23702;SDS011;12030;50.376;8.762;2022-07-22T12:14:05;2.97;;;2.67;;
23702;SDS011;12030;50.376;8.762;2022-07-22T12:16:31;3.20;;;2.83;;
23702;SDS011;12030;50.376;8.762;2022-07-22T12:18:57;3.30;;;2.90;;
23702;SDS011;12030;50.376;8.762;2022-07-22T12:21:29;3.30;;;2.75;;
23702;SDS011;12030;50.376;8.762;2022-07-22T12:24:05;4.35;;;3.00;;
23702;SDS011;12030;50.376;8.762;2022-07-22T12:26:45;3.20;;;2.90;;
23702;SDS011;12030;50.376;8.762;2022-07-22T12:31:46;3.50;;;2.70;;
23702;SDS011;12030;50.376;8.762;2022-07-22T12:34:29;3.00;;;2.55;;
23702;SDS011;12030;50.376;8.762;2022-07-22T12:37:00;4.78;;;2.88;;
23702;SDS011;12030;50.376;8.762;2022-07-22T12:39:36;3.75;;;2.88;;
23702;SDS011;12030;50.376;8.762;2022-07-22T12:42:02;3.80;;;2.77;;
23702;SDS011;12030;50.376;8.762;2022-07-22T12:44:27;3.10;;;2.80;;
23702;SDS011;12030;50.376;8.762;2022-07-22T12:46:53;3.75;;;2.50;;
23702;SDS011;12030;50.376;8.762;2022-07-22T12:49:21;2.92;;;2.50;;
23702;SDS011;12030;50.376;8.762;2022-07-22T12:52:08;2.88;;;2.50;;
23702;SDS011;12030;50.376;8.762;2022-07-22T12:54:38;3.03;;;2.60;;
23702;SDS011;12030;50.376;8.762;2022-07-22T12:57:05;3.03;;;2.40;;
23702;SDS011;12030;50.376;8.762;2022-07-22T12:59:32;3.50;;;2.92;;
23702;SDS011;12030;50.376;8.762;2022-07-22T13:01:58;3.00;;;2.70;;
23702;SDS011;12030;50.376;8.762;2022-07-22T13:04:24;2.92;;;2.50;;
23702;SDS011;12030;50.376;8.762;2022-07-22T13:06:49;3.60;;;2.83;;
23702;SDS011;12030;50.376;8.762;2022-07-22T13:09:15;3.20;;;2.90;;
23702;SDS011;12030;50.376;8.762;2022-07-22T13:11:40;2.80;;;2.60;;
23702;SDS011;12030;50.376;8.762;2022-07-22T13:14:09;4.50;;;4.10;;
23702;SDS011;12030;50.376;8.762;2022-07-22T13:16:35;3.72;;;2.97;;
23702;SDS011;12030;50.376;8.762;2022-07-22T13:19:01;3.00;;;2.70;;
23702;SDS011;12030;50.376;8.762;2022-07-22T13:21:28;5.10;;;2.97;;
23702;SDS011;12030;50.376;8.762;2022-07-22T13:23:54;5.20;;;3.10;;
23702;SDS011;12030;50.376;8.762;2022-07-22T13:26:19;3.17;;;2.87;;
23702;SDS011;12030;50.376;8.762;2022-07-22T13:28:46;3.80;;;2.78;;
23702;SDS011;12030;50.376;8.762;2022-07-22T13:31:20;6.43;;;3.53;;
23702;SDS011;12030;50.376;8.762;2022-07-22T13:33:45;3.30;;;2.63;;
23702;SDS011;12030;50.376;8.762;2022-07-22T13:36:11;3.60;;;3.30;;
23702;SDS011;12030;50.376;8.762;2022-07-22T13:38:36;2.87;;;2.60;;
23702;SDS011;12030;50.376;8.762;2022-07-22T13:41:02;3.95;;;2.95;;
23702;SDS011;12030;50.376;8.762;2022-07-22T13:43:27;4.97;;;2.50;;
23702;SDS011;12030;50.376;8.762;2022-07-22T13:45:55;4.20;;;2.70;;
23702;SDS011;12030;50.376;8.762;2022-07-22T13:48:21;4.00;;;2.87;;
23702;SDS011;12030;50.376;8.762;2022-07-22T13:50:46;3.03;;;2.70;;
23702;SDS011;12030;50.376;8.762;2022-07-22T13:53:12;3.00;;;2.67;;
23702;SDS011;12030;50.376;8.762;2022-07-22T13:55:38;3.77;;;2.93;;
23702;SDS011;12030;50.376;8.762;2022-07-22T13:58:04;3.25;;;2.95;;
23702;SDS011;12030;50.376;8.762;2022-07-22T14:00:30;3.40;;;2.83;;
23702;SDS011;12030;50.376;8.762;2022-07-22T14:02:56;4.10;;;2.97;;
23702;SDS011;12030;50.376;8.762;2022-07-22T14:05:22;5.63;;;2.90;;
23702;SDS011;12030;50.376;8.762;2022-07-22T14:07:47;3.30;;;2.90;;
23702;SDS011;12030;50.376;8.762;2022-07-22T14:10:13;3.33;;;3.03;;
23702;SDS011;12030;50.376;8.762;2022-07-22T14:12:39;3.97;;;3.10;;
23702;SDS011;12030;50.376;8.762;2022-07-22T14:15:05;3.78;;;2.92;;
23702;SDS011;12030;50.376;8.762;2022-07-22T14:17:32;4.63;;;3.10;;
23702;SDS011;12030;50.376;8.762;2022-07-22T14:19:58;3.20;;;2.72;;
23702;SDS011;12030;50.376;8.762;2022-07-22T14:22:24;4.60;;;2.88;;
23702;SDS011;12030;50.376;8.762;2022-07-22T14:24:50;3.10;;;2.80;;
23702;SDS011;12030;50.376;8.762;2022-07-22T14:27:15;3.88;;;3.20;;
23702;SDS011;12030;50.376;8.762;2022-07-22T14:29:41;3.00;;;2.70;;
23702;SDS011;12030;50.376;8.762;2022-07-22T14:32:07;3.75;;;2.88;;
23702;SDS011;12030;50.376;8.762;2022-07-22T14:34:32;3.10;;;2.80;;
23702;SDS011;12030;50.376;8.762;2022-07-22T14:36:58;2.97;;;2.70;;
23702;SDS011;12030;50.376;8.762;2022-07-22T14:39:23;3.70;;;2.90;;
23702;SDS011;12030;50.376;8.762;2022-07-22T14:41:49;3.20;;;2.90;;
23702;SDS011;12030;50.376;8.762;2022-07-22T14:44:15;3.45;;;2.85;;
23702;SDS011;12030;50.376;8.762;2022-07-22T14:46:40;4.33;;;2.93;;
23702;SDS011;12030;50.376;8.762;2022-07-22T14:49:06;4.27;;;2.77;;
23702;SDS011;12030;50.376;8.762;2022-07-22T14:51:32;4.10;;;2.93;;
23702;SDS011;12030;50.376;8.762;2022-07-22T14:53:57;3.73;;;2.60;;
23702;SDS011;12030;50.376;8.762;2022-07-22T14:56:23;3.67;;;2.77;;
23702;SDS011;12030;50.376;8.762;2022-07-22T14:58:49;4.22;;;2.83;;
23702;SDS011;12030;50.376;8.762;2022-07-22T15:01:14;5.93;;;3.10;;
23702;SDS011;12030;50.376;8.762;2022-07-22T15:03:40;9.10;;;3.60;;